Time;durP1;ratioP1;P1;durP2;ratioP2;P2;SDS_P1;SDS_P2;PMS_P1;PMS_P2;Temp;Humidity;BMP_temperature;BMP_pressure;BME280_temperature;BME280_humidity;BME280_pressure;Samples;Min_cycle;Max_cycle;Signal;HPM_P1;HPM_P2
2023/06/26 00:00:15;;;;;;;2.53;0.50;;;17.20;99.90;;;;;;5053475;28;20440;-50
2023/06/26 00:02:40;;;;;;;1.15;0.70;;;17.10;99.90;;;;;;5053776;28;20079;-45
2023/06/26 00:05:06;;;;;;;1.55;0.75;;;17.00;99.90;;;;;;5053516;28;20479;-46
2023/06/26 00:07:34;;;;;;;6.75;0.90;;;17.00;99.90;;;;;;5053421;28;20028;-54
2023/06/26 00:10:01;;;;;;;1.80;0.70;;;16.90;99.90;;;;;;5053489;28;20163;-55
2023/06/26 00:12:26;;;;;;;4.38;0.63;;;16.90;99.90;;;;;;5053190;28;20024;-55
2023/06/26 00:14:52;;;;;;;2.90;0.80;;;16.80;99.90;;;;;;5053006;28;20045;-50
2023/06/26 00:17:18;;;;;;;1.27;0.55;;;16.80;99.90;;;;;;5053017;28;20381;-48
2023/06/26 00:19:44;;;;;;;0.68;0.43;;;16.80;99.90;;;;;;5053104;28;20105;-47
2023/06/26 00:22:09;;;;;;;2.10;0.63;;;16.70;99.90;;;;;;5053070;28;20036;-45
2023/06/26 00:24:35;;;;;;;1.52;0.70;;;16.70;99.90;;;;;;5053166;28;20025;-45
2023/06/26 00:27:00;;;;;;;3.40;0.85;;;16.70;99.90;;;;;;5052296;28;20389;-44
2023/06/26 00:29:26;;;;;;;1.40;0.70;;;16.70;99.90;;;;;;5052774;28;20473;-53
2023/06/26 00:31:51;;;;;;;1.63;0.60;;;16.70;99.90;;;;;;5053147;28;20021;-51
2023/06/26 00:34:17;;;;;;;2.05;0.70;;;16.60;99.90;;;;;;5052763;28;20501;-47
2023/06/26 00:36:43;;;;;;;3.10;0.90;;;16.60;99.90;;;;;;5052975;28;20033;-45
2023/06/26 00:39:09;;;;;;;1.08;0.60;;;16.60;99.90;;;;;;5052693;28;20059;-43
2023/06/26 00:41:36;;;;;;;1.48;0.65;;;16.50;99.90;;;;;;5052769;28;20094;-53
2023/06/26 00:44:03;;;;;;;1.83;0.70;;;16.50;99.90;;;;;;5052626;28;20086;-47
2023/06/26 00:46:29;;;;;;;3.13;1.05;;;16.40;99.90;;;;;;5052521;28;20488;-45
2023/06/26 00:48:56;;;;;;;1.10;0.60;;;16.40;99.90;;;;;;5052527;28;20047;-47
2023/06/26 00:51:22;;;;;;;2.45;0.75;;;16.30;99.90;;;;;;5052603;28;20025;-46
2023/06/26 00:53:48;;;;;;;1.35;0.60;;;16.30;99.90;;;;;;5052562;28;20603;-43
2023/06/26 00:56:15;;;;;;;5.03;0.70;;;16.30;99.90;;;;;;5052329;28;20028;-53
2023/06/26 00:58:40;;;;;;;2.85;0.93;;;16.30;99.90;;;;;;5052355;28;20025;-43
2023/06/26 01:01:08;;;;;;;2.75;0.90;;;16.20;99.90;;;;;;5052533;28;20024;-50
2023/06/26 01:03:34;;;;;;;4.47;0.90;;;16.20;99.90;;;;;;5052604;28;20025;-43
2023/06/26 01:06:01;;;;;;;4.65;0.82;;;16.20;99.90;;;;;;5052545;28;20086;-46
2023/06/26 01:08:27;;;;;;;3.05;0.95;;;16.20;99.90;;;;;;5051986;28;20502;-50
2023/06/26 01:10:53;;;;;;;2.05;0.80;;;16.10;99.90;;;;;;5052195;28;20127;-45
2023/06/26 01:13:19;;;;;;;1.52;0.80;;;16.10;99.90;;;;;;5051928;28;20068;-54
2023/06/26 01:15:46;;;;;;;1.90;0.80;;;16.10;99.90;;;;;;5052111;28;20029;-49
2023/06/26 01:18:11;;;;;;;2.55;0.93;;;16.00;99.90;;;;;;5052100;28;20446;-52
2023/06/26 01:20:41;;;;;;;2.38;0.88;;;16.00;99.90;;;;;;5051941;28;20098;-43
2023/06/26 01:23:49;;;;;;;6.43;0.85;;;16.00;99.90;;;;;;5052052;28;20025;-45
2023/06/26 01:26:21;;;;;;;1.63;0.82;;;16.00;99.90;;;;;;5029505;28;20028;-44
2023/06/26 01:28:50;;;;;;;2.80;0.95;;;15.90;99.90;;;;;;5029710;28;20075;-44
2023/06/26 01:31:17;;;;;;;2.55;1.13;;;15.90;99.90;;;;;;5037061;28;20036;-43
2023/06/26 01:33:43;;;;;;;2.78;0.70;;;15.90;99.90;;;;;;5051786;28;20036;-43
2023/06/26 01:36:09;;;;;;;2.50;0.95;;;15.80;99.90;;;;;;5051540;28;20032;-43
2023/06/26 01:38:34;;;;;;;5.18;1.02;;;15.80;99.90;;;;;;5050649;28;20397;-52
2023/06/26 01:41:00;;;;;;;2.95;1.00;;;15.80;99.90;;;;;;5051474;28;20060;-56
2023/06/26 01:43:40;;;;;;;4.40;1.00;;;15.80;99.90;;;;;;5051580;28;20036;-55
2023/06/26 01:46:15;;;;;;;3.00;0.98;;;15.80;99.90;;;;;;5051473;28;20028;-50
2023/06/26 01:48:59;;;;;;;2.65;1.08;;;15.70;99.90;;;;;;5051289;28;20028;-55
2023/06/26 01:51:30;;;;;;;3.45;0.80;;;15.70;99.90;;;;;;5051567;28;20079;-54
2023/06/26 01:53:58;;;;;;;1.85;1.08;;;15.70;99.90;;;;;;5051264;28;20021;-48
2023/06/26 01:56:24;;;;;;;4.15;1.10;;;15.60;99.90;;;;;;5051441;28;20021;-45
2023/06/26 01:58:54;;;;;;;2.67;0.95;;;15.70;99.90;;;;;;5051149;28;20037;-44
2023/06/26 02:01:20;;;;;;;7.15;1.00;;;15.70;99.90;;;;;;5051328;28;20025;-43
2023/06/26 02:03:46;;;;;;;4.93;1.75;;;15.60;99.90;;;;;;5049941;28;20456;-46
2023/06/26 02:06:11;;;;;;;1.95;0.90;;;15.60;99.90;;;;;;5050086;28;20033;-49
2023/06/26 02:08:37;;;;;;;2.25;0.90;;;15.60;99.90;;;;;;5049778;28;20051;-43
2023/06/26 02:11:03;;;;;;;2.42;1.00;;;15.50;99.90;;;;;;5050839;28;20077;-44
2023/06/26 02:13:28;;;;;;;3.10;1.00;;;15.50;99.90;;;;;;5050891;28;20491;-44
2023/06/26 02:15:54;;;;;;;4.05;0.90;;;15.50;99.90;;;;;;5051145;28;20500;-44
2023/06/26 02:18:22;;;;;;;3.75;1.20;;;15.40;99.90;;;;;;5050963;28;20039;-46
2023/06/26 02:20:48;;;;;;;2.40;1.10;;;15.40;99.90;;;;;;5051045;28;20053;-48
2023/06/26 02:23:14;;;;;;;5.93;1.00;;;15.40;99.90;;;;;;5050753;28;20033;-45
2023/06/26 02:25:40;;;;;;;1.88;0.90;;;15.40;99.90;;;;;;5050986;28;20394;-47
2023/06/26 02:28:05;;;;;;;2.15;1.00;;;15.30;99.90;;;;;;5050749;28;20029;-46
2023/06/26 02:30:31;;;;;;;2.55;0.90;;;15.30;99.90;;;;;;5049765;28;20067;-45
2023/06/26 02:32:56;;;;;;;3.45;1.13;;;15.30;99.90;;;;;;5050983;28;20040;-43
2023/06/26 02:35:22;;;;;;;5.25;1.30;;;15.30;99.90;;;;;;5050689;28;20499;-45
2023/06/26 02:37:47;;;;;;;2.63;1.20;;;15.20;99.90;;;;;;5050771;28;20075;-46
2023/06/26 02:40:13;;;;;;;1.80;0.95;;;15.20;99.90;;;;;;5050538;28;20033;-43
2023/06/26 02:42:39;;;;;;;4.13;1.00;;;15.10;99.90;;;;;;5050519;28;20096;-47
2023/06/26 02:45:05;;;;;;;4.57;1.13;;;15.20;99.90;;;;;;5050733;28;20028;-50
2023/06/26 02:47:30;;;;;;;1.70;0.95;;;15.20;99.90;;;;;;5050813;28;20017;-52
2023/06/26 02:49:56;;;;;;;2.50;0.90;;;15.10;99.90;;;;;;5050443;28;20511;-45
2023/06/26 02:52:21;;;;;;;3.97;1.20;;;15.10;99.90;;;;;;5050404;28;20017;-44
2023/06/26 02:54:47;;;;;;;5.22;1.42;;;15.20;99.90;;;;;;5050421;28;20032;-46
2023/06/26 02:57:14;;;;;;;1.58;0.95;;;15.10;99.90;;;;;;5044930;28;20048;-50
2023/06/26 02:59:40;;;;;;;2.33;1.00;;;15.10;99.90;;;;;;5032415;28;20036;-46
2023/06/26 03:02:06;;;;;;;1.35;0.90;;;15.10;99.90;;;;;;5033926;28;20385;-49
2023/06/26 03:04:31;;;;;;;2.75;0.77;;;15.10;99.90;;;;;;5032138;28;20566;-49
2023/06/26 03:06:57;;;;;;;4.30;1.30;;;15.10;99.90;;;;;;5033097;28;20033;-47
2023/06/26 03:09:23;;;;;;;3.55;1.20;;;15.10;99.90;;;;;;5032565;28;20029;-46
2023/06/26 03:11:48;;;;;;;4.43;1.45;;;15.10;99.90;;;;;;5031971;28;20017;-43
2023/06/26 03:14:14;;;;;;;4.90;1.30;;;15.10;99.90;;;;;;5035647;28;20081;-48
2023/06/26 03:16:40;;;;;;;2.22;0.98;;;15.10;99.90;;;;;;5036182;28;20029;-46
2023/06/26 03:19:06;;;;;;;5.53;1.38;;;15.00;99.90;;;;;;5041664;28;20037;-50
2023/06/26 03:21:32;;;;;;;2.15;1.05;;;15.00;99.90;;;;;;5036086;28;20025;-53
2023/06/26 03:23:58;;;;;;;4.63;1.00;;;15.00;99.90;;;;;;5040203;28;20070;-45
2023/06/26 03:26:27;;;;;;;3.30;1.20;;;15.00;99.90;;;;;;5037350;28;20026;-46
2023/06/26 03:28:53;;;;;;;5.70;1.38;;;15.00;99.90;;;;;;5038734;28;20034;-54
2023/06/26 03:31:19;;;;;;;4.47;1.30;;;15.00;99.90;;;;;;5039071;28;20059;-43
2023/06/26 03:33:45;;;;;;;4.47;1.20;;;14.90;99.90;;;;;;5041892;28;20032;-52
2023/06/26 03:36:11;;;;;;;5.03;1.50;;;14.80;99.90;;;;;;5043388;28;20033;-46
2023/06/26 03:38:36;;;;;;;2.05;0.90;;;14.80;99.90;;;;;;5039409;28;20036;-45
2023/06/26 03:41:02;;;;;;;4.90;1.13;;;14.80;99.90;;;;;;5044203;28;20021;-53
2023/06/26 03:43:28;;;;;;;2.63;0.90;;;14.80;99.90;;;;;;5039062;28;20095;-57
2023/06/26 03:45:54;;;;;;;2.28;1.25;;;14.80;99.90;;;;;;5043647;28;20025;-44
2023/06/26 03:48:19;;;;;;;4.90;1.55;;;14.80;99.90;;;;;;5041310;28;20030;-50
2023/06/26 03:50:45;;;;;;;3.53;1.30;;;14.80;99.90;;;;;;5041491;28;20057;-44
2023/06/26 03:53:11;;;;;;;2.70;0.98;;;14.70;99.90;;;;;;5043362;28;20024;-42
2023/06/26 03:55:38;;;;;;;2.53;1.00;;;14.70;99.90;;;;;;5039366;28;20020;-43
2023/06/26 03:58:04;;;;;;;4.22;1.35;;;14.70;99.90;;;;;;5044294;28;20048;-43
2023/06/26 04:00:29;;;;;;;3.80;1.10;;;14.70;99.90;;;;;;5039125;28;20481;-51
2023/06/26 04:02:55;;;;;;;3.85;1.23;;;14.70;99.90;;;;;;5047225;28;20059;-44
2023/06/26 04:05:21;;;;;;;4.00;1.13;;;14.70;99.90;;;;;;5044424;28;20017;-43
2023/06/26 04:07:50;;;;;;;1.52;1.00;;;14.70;99.90;;;;;;5045000;28;20021;-47
2023/06/26 04:10:16;;;;;;;3.58;1.30;;;14.70;99.90;;;;;;5045987;28;20492;-43
2023/06/26 04:12:41;;;;;;;3.60;1.80;;;14.70;99.90;;;;;;5043554;28;20033;-46
2023/06/26 04:15:07;;;;;;;4.65;1.30;;;14.60;99.90;;;;;;5049154;28;20455;-48
2023/06/26 04:17:33;;;;;;;5.63;1.95;;;14.60;99.90;;;;;;5053011;28;20088;-51
2023/06/26 04:19:58;;;;;;;5.55;1.58;;;14.50;99.90;;;;;;5053101;28;20439;-48
2023/06/26 04:22:25;;;;;;;2.35;1.15;;;14.50;99.90;;;;;;5051625;28;20028;-47
2023/06/26 04:24:51;;;;;;;3.50;1.23;;;14.50;99.90;;;;;;5053057;28;20033;-47
2023/06/26 04:27:17;;;;;;;5.53;1.50;;;14.50;99.90;;;;;;5053291;28;20021;-48
2023/06/26 04:29:43;;;;;;;3.78;1.60;;;14.50;99.90;;;;;;5052881;28;20505;-53
2023/06/26 04:32:09;;;;;;;3.25;1.15;;;14.60;99.90;;;;;;5053015;28;20111;-53
2023/06/26 04:34:36;;;;;;;4.38;1.25;;;14.60;99.90;;;;;;5052607;28;20037;-41
2023/06/26 04:37:04;;;;;;;7.28;1.67;;;14.60;99.90;;;;;;5052960;28;20442;-45
2023/06/26 04:39:30;;;;;;;4.95;1.90;;;14.70;99.90;;;;;;5052531;28;20112;-43
2023/06/26 04:41:56;;;;;;;3.55;1.25;;;14.70;99.90;;;;;;5052801;28;20218;-53
2023/06/26 04:44:21;;;;;;;1.83;1.00;;;14.70;99.90;;;;;;5052423;28;20504;-46
2023/06/26 04:46:47;;;;;;;5.70;1.67;;;14.70;99.90;;;;;;5052114;28;20466;-50
2023/06/26 04:49:13;;;;;;;3.50;1.13;;;14.60;99.90;;;;;;5052491;28;20036;-44
2023/06/26 04:51:40;;;;;;;3.33;1.70;;;14.60;99.90;;;;;;5052503;28;20025;-49
2023/06/26 04:54:07;;;;;;;5.40;1.25;;;14.80;99.90;;;;;;5051775;28;20025;-47
2023/06/26 04:56:32;;;;;;;2.13;1.10;;;14.80;99.90;;;;;;5052272;28;20439;-46
2023/06/26 04:58:58;;;;;;;3.85;1.10;;;15.10;99.90;;;;;;5052533;28;20071;-52
2023/06/26 05:01:24;;;;;;;3.50;1.45;;;15.50;99.90;;;;;;5052550;28;20029;-53
2023/06/26 05:03:50;;;;;;;4.68;1.15;;;15.90;99.90;;;;;;5052303;28;20109;-50
2023/06/26 05:06:16;;;;;;;4.82;1.23;;;16.30;99.90;;;;;;5052442;28;20037;-55
2023/06/26 05:08:41;;;;;;;4.53;1.55;;;16.70;99.90;;;;;;5052174;28;20032;-47
2023/06/26 05:11:07;;;;;;;4.57;0.90;;;17.00;99.90;;;;;;5052218;28;20054;-50
2023/06/26 05:13:32;;;;;;;3.83;1.30;;;17.30;99.90;;;;;;5051979;28;20053;-50
2023/06/26 05:15:58;;;;;;;4.43;1.10;;;17.30;99.90;;;;;;5052115;28;20025;-48
2023/06/26 05:18:24;;;;;;;6.32;1.20;;;17.40;99.90;;;;;;5052238;28;20120;-44
2023/06/26 05:20:49;;;;;;;3.35;1.10;;;17.50;99.90;;;;;;5052114;28;20025;-51
2023/06/26 05:23:16;;;;;;;2.13;0.90;;;17.40;99.90;;;;;;5052105;28;20513;-51
2023/06/26 05:25:42;;;;;;;2.20;1.08;;;17.40;99.90;;;;;;5052162;28;20021;-46
2023/06/26 05:28:10;;;;;;;1.90;1.08;;;17.30;99.90;;;;;;5051891;28;20017;-44
2023/06/26 05:30:36;;;;;;;3.78;1.05;;;17.20;99.90;;;;;;5052002;28;20367;-53
2023/06/26 05:33:03;;;;;;;2.17;1.10;;;17.20;99.90;;;;;;5051948;28;20025;-47
2023/06/26 05:35:30;;;;;;;4.50;1.38;;;17.20;99.90;;;;;;5051907;28;20681;-44
2023/06/26 05:37:56;;;;;;;6.55;1.60;;;17.10;99.90;;;;;;5051661;28;20520;-45
2023/06/26 05:40:22;;;;;;;5.68;1.00;;;17.30;99.90;;;;;;5051686;28;20021;-52
2023/06/26 05:42:48;;;;;;;2.22;0.98;;;17.30;99.90;;;;;;5052017;28;20036;-51
2023/06/26 05:45:14;;;;;;;4.03;1.25;;;17.40;99.90;;;;;;5051738;28;20017;-51
2023/06/26 05:47:40;;;;;;;2.08;0.93;;;17.60;99.90;;;;;;5051684;28;20043;-48
2023/06/26 05:50:07;;;;;;;3.42;1.25;;;17.80;99.90;;;;;;5051637;28;20039;-48
2023/06/26 05:52:33;;;;;;;2.35;1.08;;;18.10;99.90;;;;;;5051547;28;20056;-51
2023/06/26 05:55:00;;;;;;;3.08;0.90;;;18.50;99.90;;;;;;5051671;28;20063;-44
2023/06/26 05:57:27;;;;;;;2.42;0.93;;;19.00;99.90;;;;;;5051564;28;20167;-44
2023/06/26 05:59:54;;;;;;;4.93;0.90;;;19.50;99.90;;;;;;5051453;28;20071;-47
2023/06/26 06:02:20;;;;;;;1.55;0.90;;;20.00;99.90;;;;;;5051533;28;20017;-45
2023/06/26 06:04:46;;;;;;;3.50;1.33;;;20.40;99.90;;;;;;5051359;28;20033;-48
2023/06/26 06:07:12;;;;;;;6.38;1.25;;;21.00;99.90;;;;;;5051315;28;20020;-46
2023/06/26 06:09:37;;;;;;;3.85;0.93;;;21.60;99.90;;;;;;5051397;28;20033;-47
2023/06/26 06:12:07;;;;;;;5.50;1.08;;;22.20;99.90;;;;;;5051333;28;20051;-44
2023/06/26 06:14:34;;;;;;;2.75;1.00;;;22.70;99.90;;;;;;5050996;28;20087;-45
2023/06/26 06:17:00;;;;;;;6.05;1.42;;;23.00;99.90;;;;;;5043651;28;20047;-45
2023/06/26 06:19:26;;;;;;;4.85;1.00;;;23.20;99.90;;;;;;5040281;28;20560;-48
2023/06/26 06:21:52;;;;;;;2.33;0.80;;;23.30;99.90;;;;;;5039890;28;20022;-45
2023/06/26 06:24:18;;;;;;;2.53;0.90;;;23.50;99.90;;;;;;5042118;28;20028;-46
2023/06/26 06:26:44;;;;;;;3.53;1.13;;;23.60;99.90;;;;;;5037914;28;20482;-45
2023/06/26 06:29:10;;;;;;;2.22;0.85;;;23.60;99.90;;;;;;5043760;28;20562;-49
2023/06/26 06:31:35;;;;;;;4.93;1.10;;;23.90;99.90;;;;;;5038423;28;20025;-47
2023/06/26 06:34:01;;;;;;;2.97;0.73;;;23.90;99.90;;;;;;5041685;28;20451;-47
2023/06/26 06:36:27;;;;;;;2.78;0.98;;;23.80;99.90;;;;;;5040456;28;20359;-45
2023/06/26 06:38:52;;;;;;;3.05;0.98;;;24.10;99.90;;;;;;5039901;28;20120;-48
2023/06/26 06:41:22;;;;;;;2.22;0.73;;;24.30;99.90;;;;;;5042327;28;20485;-47
2023/06/26 06:43:47;;;;;;;2.78;0.85;;;24.50;99.90;;;;;;5038074;28;20061;-45
2023/06/26 06:46:13;;;;;;;3.67;1.10;;;24.80;99.90;;;;;;5043491;28;20060;-51
2023/06/26 06:48:39;;;;;;;1.55;0.80;;;24.90;99.90;;;;;;5044092;28;20446;-47
2023/06/26 06:51:04;;;;;;;1.75;0.77;;;25.10;99.90;;;;;;5042151;28;20084;-52
2023/06/26 06:53:31;;;;;;;5.10;1.02;;;25.30;99.90;;;;;;5043500;28;20386;-45
2023/06/26 06:55:57;;;;;;;3.92;1.02;;;25.40;99.90;;;;;;5043324;28;20037;-47
2023/06/26 06:58:22;;;;;;;4.65;1.25;;;25.50;99.90;;;;;;5041589;28;20025;-50
2023/06/26 07:00:48;;;;;;;3.60;0.80;;;25.60;99.90;;;;;;5037565;28;20483;-50
2023/06/26 07:03:14;;;;;;;3.47;0.90;;;25.80;99.90;;;;;;5040542;28;20036;-52
2023/06/26 07:05:43;;;;;;;1.83;0.85;;;25.70;99.90;;;;;;5048751;28;20024;-54
2023/06/26 07:08:09;;;;;;;3.05;0.93;;;25.90;99.90;;;;;;5050194;28;20028;-51
2023/06/26 07:10:35;;;;;;;3.78;1.13;;;26.10;99.90;;;;;;5049517;28;20029;-45
2023/06/26 07:13:00;;;;;;;0.80;0.60;;;26.20;99.90;;;;;;5050759;28;20031;-51
2023/06/26 07:15:26;;;;;;;4.28;0.93;;;26.20;99.90;;;;;;5049677;28;20377;-45
2023/06/26 07:17:51;;;;;;;3.22;1.08;;;26.20;99.90;;;;;;5050198;28;20473;-45
2023/06/26 07:20:17;;;;;;;2.90;0.93;;;26.10;99.90;;;;;;5050352;28;20025;-44
2023/06/26 07:22:44;;;;;;;1.63;0.90;;;26.30;99.90;;;;;;5050297;28;20394;-50
2023/06/26 07:25:11;;;;;;;5.65;1.25;;;26.50;99.90;;;;;;5051682;28;20090;-49
2023/06/26 07:27:41;;;;;;;4.00;1.30;;;26.70;99.90;;;;;;5050231;28;20029;-52
2023/06/26 07:30:10;;;;;;;2.33;0.80;;;26.90;99.90;;;;;;5049230;28;20421;-51
2023/06/26 07:32:37;;;;;;;2.13;0.80;;;26.80;98.60;;;;;;5046502;28;20432;-51
2023/06/26 07:35:03;;;;;;;2.22;1.02;;;27.00;99.40;;;;;;5049442;28;20033;-50
2023/06/26 07:37:28;;;;;;;5.45;1.00;;;27.10;99.70;;;;;;5052665;28;20112;-47
2023/06/26 07:39:54;;;;;;;1.65;0.88;;;27.60;98.20;;;;;;5048715;28;20096;-47
2023/06/26 07:42:20;;;;;;;2.08;0.80;;;27.60;98.60;;;;;;5043245;28;20022;-56
2023/06/26 07:44:45;;;;;;;3.53;1.17;;;27.80;98.40;;;;;;5040132;28;20037;-49
2023/06/26 07:47:11;;;;;;;4.05;0.80;;;27.90;97.90;;;;;;5044580;28;20198;-51
2023/06/26 07:49:38;;;;;;;3.08;0.93;;;28.20;96.90;;;;;;5058100;28;20021;-45
2023/06/26 07:52:05;;;;;;;4.10;0.98;;;28.20;97.20;;;;;;5047944;28;20060;-47
2023/06/26 07:54:30;;;;;;;2.22;0.80;;;28.10;95.60;;;;;;5042665;28;20236;-44
2023/06/26 07:57:07;;;;;;;4.32;0.93;;;28.20;96.80;;;;;;5048185;28;20157;-54
2023/06/26 07:59:33;;;;;;;3.03;0.90;;;28.00;95.90;;;;;;5040713;28;20049;-52
2023/06/26 08:01:59;;;;;;;2.17;0.82;;;27.90;96.70;;;;;;5041253;28;20037;-49
2023/06/26 08:04:26;;;;;;;3.80;1.33;;;27.80;98.10;;;;;;5042333;28;20028;-50
2023/06/26 08:06:54;;;;;;;3.42;0.93;;;27.60;96.00;;;;;;5042281;28;20025;-48
2023/06/26 08:09:22;;;;;;;4.72;1.05;;;27.60;95.90;;;;;;5037623;28;20026;-50
2023/06/26 08:11:48;;;;;;;6.13;1.00;;;27.40;95.30;;;;;;5043757;28;20124;-51
2023/06/26 08:14:15;;;;;;;3.15;0.85;;;27.40;95.80;;;;;;5041073;28;20163;-51
2023/06/26 08:16:43;;;;;;;2.42;0.90;;;27.40;96.60;;;;;;5053375;28;20040;-45
2023/06/26 08:19:09;;;;;;;3.03;0.93;;;27.60;96.80;;;;;;5052961;28;20033;-50
2023/06/26 08:21:35;;;;;;;2.10;1.05;;;27.80;95.90;;;;;;5044835;28;20474;-45
2023/06/26 08:24:01;;;;;;;3.13;1.05;;;27.60;95.20;;;;;;5042745;28;20025;-44
2023/06/26 08:26:26;;;;;;;3.20;1.08;;;27.40;95.20;;;;;;5039714;28;20022;-50
2023/06/26 08:28:52;;;;;;;2.83;1.08;;;27.40;96.90;;;;;;5038777;28;20414;-47
2023/06/26 08:31:18;;;;;;;4.60;0.80;;;27.30;95.50;;;;;;5040530;28;20124;-51
2023/06/26 08:33:43;;;;;;;1.75;0.82;;;27.70;95.70;;;;;;5045842;28;20032;-47
2023/06/26 08:36:09;;;;;;;2.00;0.90;;;27.70;95.90;;;;;;5047487;28;20052;-44
2023/06/26 08:38:35;;;;;;;2.85;0.90;;;27.90;94.50;;;;;;5043713;28;20103;-48
2023/06/26 08:41:00;;;;;;;6.60;0.95;;;27.90;96.30;;;;;;5048060;28;20044;-48
2023/06/26 08:43:27;;;;;;;3.88;0.90;;;28.00;93.40;;;;;;5043189;28;20021;-49
2023/06/26 08:45:52;;;;;;;4.13;1.00;;;28.10;95.90;;;;;;5047167;28;20497;-48
2023/06/26 08:48:21;;;;;;;3.03;0.70;;;27.90;96.00;;;;;;5042712;28;20025;-52
2023/06/26 08:50:48;;;;;;;3.25;1.05;;;28.10;95.20;;;;;;5044797;28;20029;-51
2023/06/26 08:53:30;;;;;;;4.07;0.93;;;28.40;92.30;;;;;;5039675;28;20025;-49
2023/06/26 08:55:57;;;;;;;5.00;0.80;;;28.30;95.10;;;;;;5035160;28;20493;-42
2023/06/26 08:58:24;;;;;;;1.23;0.65;;;28.20;91.90;;;;;;5043409;28;20041;-42
2023/06/26 09:00:50;;;;;;;1.50;0.88;;;27.60;92.90;;;;;;5039404;28;20029;-56
2023/06/26 09:03:16;;;;;;;2.55;0.80;;;27.50;93.30;;;;;;5050442;28;20549;-42
2023/06/26 09:05:42;;;;;;;2.45;0.80;;;27.60;93.20;;;;;;5048698;28;20565;-41
2023/06/26 09:08:08;;;;;;;3.10;0.80;;;27.40;93.60;;;;;;5050459;28;20107;-44
2023/06/26 09:10:34;;;;;;;2.10;0.70;;;26.80;93.00;;;;;;5052238;28;20470;-48
2023/06/26 09:13:01;;;;;;;2.65;0.60;;;26.00;91.00;;;;;;5051934;28;20029;-47
2023/06/26 09:15:30;;;;;;;2.05;0.70;;;25.90;92.00;;;;;;5052316;28;20048;-46
2023/06/26 09:17:58;;;;;;;5.90;1.02;;;26.10;95.10;;;;;;5052115;28;20037;-46
2023/06/26 09:20:28;;;;;;;2.53;1.05;;;26.70;93.10;;;;;;5052153;28;20409;-40
2023/06/26 09:22:53;;;;;;;1.45;0.60;;;26.90;94.30;;;;;;5052165;28;20033;-41
2023/06/26 09:25:22;;;;;;;1.38;0.50;;;27.10;92.10;;;;;;5052310;28;20427;-41
2023/06/26 09:27:48;;;;;;;2.40;0.80;;;26.90;93.30;;;;;;5051903;28;20389;-42
2023/06/26 09:30:17;;;;;;;5.72;0.88;;;26.40;93.40;;;;;;5052283;28;20025;-48
2023/06/26 09:32:43;;;;;;;1.85;0.50;;;25.90;92.80;;;;;;5051931;28;20032;-46
2023/06/26 09:35:09;;;;;;;1.85;0.55;;;26.20;93.50;;;;;;5051948;28;20094;-40
2023/06/26 09:37:35;;;;;;;1.45;0.70;;;26.90;92.60;;;;;;5051919;28;20060;-40
2023/06/26 09:40:00;;;;;;;1.70;0.80;;;27.60;91.30;;;;;;5051569;28;20044;-45
2023/06/26 09:42:26;;;;;;;1.42;0.60;;;28.00;90.50;;;;;;5052006;28;20067;-41
2023/06/26 09:44:52;;;;;;;3.75;0.80;;;28.30;90.20;;;;;;5051736;28;20029;-47
2023/06/26 09:47:21;;;;;;;2.70;0.80;;;28.70;88.80;;;;;;5050608;28;20489;-50
2023/06/26 09:49:47;;;;;;;0.82;0.65;;;28.50;90.80;;;;;;5051522;28;20116;-42
2023/06/26 09:52:16;;;;;;;0.98;0.50;;;28.20;89.90;;;;;;5051719;28;20100;-44
2023/06/26 09:54:44;;;;;;;3.15;0.80;;;28.30;88.90;;;;;;5051599;28;20024;-49
2023/06/26 09:57:16;;;;;;;2.72;0.80;;;28.20;87.50;;;;;;5051597;28;20067;-43
2023/06/26 09:59:44;;;;;;;3.33;0.95;;;27.70;85.60;;;;;;5049313;28;20505;-44
2023/06/26 10:02:11;;;;;;;2.45;0.70;;;26.90;87.50;;;;;;5051213;28;20024;-41
2023/06/26 10:04:36;;;;;;;1.23;0.68;;;26.70;89.90;;;;;;5046089;28;20112;-42
2023/06/26 10:07:06;;;;;;;2.17;0.70;;;27.30;92.90;;;;;;5044672;28;20112;-52
2023/06/26 10:09:32;;;;;;;1.88;0.80;;;27.90;90.50;;;;;;5045321;28;20389;-47
2023/06/26 10:12:16;;;;;;;1.65;0.70;;;28.40;92.80;;;;;;5045829;28;20028;-48
2023/06/26 10:14:42;;;;;;;1.08;0.50;;;28.90;90.70;;;;;;5047421;28;20093;-45
2023/06/26 10:17:11;;;;;;;2.65;0.50;;;28.40;86.80;;;;;;5044483;28;20061;-51
2023/06/26 10:19:38;;;;;;;;;;;27.70;85.10;;;;;;5043423;28;20037;-46
2023/06/26 10:22:04;;;;;;;2.22;0.73;;;27.00;85.40;;;;;;5048530;28;20124;-50
2023/06/26 10:24:34;;;;;;;1.80;0.70;;;26.80;90.20;;;;;;5046695;28;20026;-54
2023/06/26 10:27:25;;;;;;;1.67;0.70;;;27.40;92.40;;;;;;5049740;28;20025;-49
2023/06/26 10:29:55;;;;;;;1.95;0.70;;;27.90;88.90;;;;;;5045497;28;20033;-50
2023/06/26 10:32:24;;;;;;;1.38;0.60;;;27.80;85.60;;;;;;5032003;28;20025;-48
2023/06/26 10:34:51;;;;;;;1.27;0.65;;;27.70;86.40;;;;;;5038246;28;20037;-48
2023/06/26 10:37:17;;;;;;;2.33;0.65;;;27.80;89.70;;;;;;5043550;28;20025;-54
2023/06/26 10:39:50;;;;;;;1.25;0.57;;;27.50;84.90;;;;;;5045604;28;20033;-50
2023/06/26 10:42:18;;;;;;;1.55;0.77;;;27.40;88.90;;;;;;5042015;28;20025;-53
2023/06/26 10:44:45;;;;;;;2.88;0.80;;;27.50;85.00;;;;;;5033152;28;20053;-46
2023/06/26 10:47:38;;;;;;;3.33;0.60;;;27.10;87.70;;;;;;5032210;28;20026;-47
2023/06/26 10:50:18;;;;;;;1.50;0.60;;;26.80;87.10;;;;;;5032795;28;20105;-57
2023/06/26 10:52:43;;;;;;;1.60;0.70;;;27.30;91.80;;;;;;5032040;28;20740;-49
2023/06/26 10:55:09;;;;;;;1.83;0.60;;;28.00;86.40;;;;;;5033031;28;20030;-49
2023/06/26 10:57:36;;;;;;;2.13;0.70;;;28.40;83.80;;;;;;5031583;28;20061;-51
2023/06/26 11:00:14;;;;;;;2.58;0.80;;;28.80;82.70;;;;;;5032919;28;20034;-51
2023/06/26 11:02:53;;;;;;;2.40;0.85;;;28.90;84.30;;;;;;5031771;28;20068;-54
2023/06/26 11:05:29;;;;;;;4.40;1.13;;;29.00;87.80;;;;;;5032593;28;20106;-43
2023/06/26 11:08:19;;;;;;;1.05;0.75;;;29.00;86.80;;;;;;5031592;28;20113;-50
2023/06/26 11:10:51;;;;;;;2.60;1.10;;;29.00;85.80;;;;;;5035474;28;20029;-52
2023/06/26 11:13:19;;;;;;;5.35;0.98;;;29.20;85.70;;;;;;5046881;28;20033;-56
2023/06/26 11:15:45;;;;;;;1.02;0.60;;;29.20;80.70;;;;;;5040769;28;20061;-44
2023/06/26 11:18:13;;;;;;;2.92;0.98;;;29.30;80.10;;;;;;5054955;28;20028;-46
2023/06/26 11:20:38;;;;;;;2.17;0.77;;;29.40;78.80;;;;;;5054408;28;20025;-45
2023/06/26 11:23:07;;;;;;;1.35;0.75;;;29.60;78.40;;;;;;5054424;28;20021;-48
2023/06/26 11:25:36;;;;;;;2.08;0.70;;;29.40;76.30;;;;;;5054457;28;20024;-42
2023/06/26 11:28:04;;;;;;;2.63;0.88;;;29.60;78.90;;;;;;5052415;28;20021;-44
2023/06/26 11:30:30;;;;;;;1.75;0.70;;;29.70;73.70;;;;;;5054824;28;20029;-47
2023/06/26 11:33:09;;;;;;;3.63;1.00;;;29.70;76.00;;;;;;5052166;28;20108;-53
2023/06/26 11:35:35;;;;;;;1.80;0.60;;;30.10;74.00;;;;;;5044790;28;20028;-44
2023/06/26 11:38:04;;;;;;;3.78;0.80;;;30.10;74.80;;;;;;5050455;28;20028;-44
2023/06/26 11:40:34;;;;;;;1.48;0.70;;;30.30;78.90;;;;;;5041139;28;20036;-46
2023/06/26 11:43:03;;;;;;;2.50;1.52;;;29.90;70.70;;;;;;5051556;28;20025;-44
2023/06/26 11:45:30;;;;;;;;;;;28.90;76.10;;;;;;5052415;28;20090;-44
2023/06/26 11:47:57;;;;;;;1.40;0.63;;;28.60;76.80;;;;;;5052465;28;20423;-44
2023/06/26 11:50:23;;;;;;;2.75;0.80;;;28.50;75.50;;;;;;5050043;28;20035;-44
2023/06/26 11:52:58;;;;;;;1.25;0.75;;;28.60;76.70;;;;;;5053669;28;20107;-43
2023/06/26 11:55:25;;;;;;;5.55;0.77;;;28.60;75.20;;;;;;5051991;28;20027;-48
2023/06/26 11:57:53;;;;;;;1.67;0.55;;;28.60;72.80;;;;;;5054270;28;20400;-43
2023/06/26 12:00:19;;;;;;;2.00;0.73;;;28.80;76.50;;;;;;5051993;28;20084;-48
2023/06/26 12:02:49;;;;;;;2.25;0.73;;;29.00;79.10;;;;;;5054429;28;20041;-46
2023/06/26 12:05:15;;;;;;;1.13;0.60;;;28.90;77.00;;;;;;5052040;28;20013;-47
2023/06/26 12:07:45;;;;;;;1.10;0.50;;;28.80;72.20;;;;;;5042721;28;20078;-44
2023/06/26 12:10:11;;;;;;;1.05;0.65;;;28.50;74.00;;;;;;5053562;28;20028;-51
2023/06/26 12:12:38;;;;;;;2.45;0.50;;;28.00;76.30;;;;;;5053088;28;20028;-53
2023/06/26 12:15:06;;;;;;;3.08;0.63;;;27.30;73.00;;;;;;5053980;28;20494;-44
2023/06/26 12:17:32;;;;;;;2.50;0.80;;;27.10;76.40;;;;;;5056203;28;20124;-47
2023/06/26 12:19:58;;;;;;;1.42;0.65;;;27.20;81.00;;;;;;5056511;28;20080;-49
2023/06/26 12:22:23;;;;;;;2.13;0.68;;;27.60;76.70;;;;;;5053731;28;20492;-44
2023/06/26 12:24:49;;;;;;;1.45;0.60;;;27.90;79.30;;;;;;5053205;28;20025;-51
2023/06/26 12:27:17;;;;;;;3.72;0.90;;;28.00;74.20;;;;;;5053421;28;20112;-47
2023/06/26 12:30:04;;;;;;;1.88;0.80;;;28.40;74.80;;;;;;5053408;28;20104;-51
2023/06/26 12:32:29;;;;;;;2.20;0.82;;;28.50;71.00;;;;;;5053183;28;20128;-48
2023/06/26 12:34:57;;;;;;;0.82;0.52;;;28.50;70.80;;;;;;5053397;28;20452;-51
2023/06/26 12:37:23;;;;;;;2.00;0.80;;;28.60;71.40;;;;;;5053322;28;20112;-53
2023/06/26 12:39:48;;;;;;;1.42;0.60;;;28.40;72.70;;;;;;5053005;28;20111;-47
2023/06/26 12:42:19;;;;;;;1.13;0.65;;;28.10;71.70;;;;;;5053084;28;20146;-50
2023/06/26 12:44:45;;;;;;;1.80;0.98;;;27.60;76.70;;;;;;5052836;28;20112;-50
2023/06/26 12:47:13;;;;;;;2.70;1.20;;;27.30;74.30;;;;;;5053064;28;20079;-54